createdAt,value
2022-12-01T00:01:21.256Z,94.90
2022-12-01T00:03:48.954Z,95.19
2022-12-01T00:06:21.159Z,93.83
2022-12-01T00:09:09.266Z,93.82
2022-12-01T00:11:37.633Z,93.91
2022-12-01T00:14:05.252Z,93.85
2022-12-01T00:16:32.643Z,93.94
2022-12-01T00:18:59.376Z,94.94
2022-12-01T00:21:26.969Z,94.82
2022-12-01T00:23:56.600Z,94.94
2022-12-01T00:26:23.895Z,93.96
2022-12-01T00:28:56.007Z,94.19
2022-12-01T00:31:23.436Z,94.15
2022-12-01T00:33:50.424Z,94.52
2022-12-01T00:36:17.352Z,94.53
2022-12-01T00:38:46.182Z,94.58
2022-12-01T00:41:13.196Z,93.58
2022-12-01T00:43:40.019Z,93.88
2022-12-01T00:46:07.737Z,93.82
2022-12-01T00:48:34.961Z,93.62
2022-12-01T00:51:02.003Z,93.92
2022-12-01T00:53:28.756Z,93.72
2022-12-01T00:55:55.421Z,93.76
2022-12-01T00:58:23.094Z,93.35
2022-12-01T01:00:56.286Z,93.96
2022-12-01T01:03:23.433Z,93.68
2022-12-01T01:05:50.016Z,93.42
2022-12-01T01:08:16.751Z,93.28
2022-12-01T01:10:46.559Z,93.72
2022-12-01T01:13:14.288Z,94.01
2022-12-01T01:15:41.135Z,94.45
2022-12-01T01:18:09.588Z,93.93
2022-12-01T01:20:36.152Z,93.59
2022-12-01T01:23:02.679Z,93.82
2022-12-01T01:25:29.331Z,94.28
2022-12-01T01:27:56.026Z,94.02
2022-12-01T01:30:22.574Z,93.67
2022-12-01T01:32:49.186Z,93.72
2022-12-01T01:35:15.801Z,94.05
2022-12-01T01:37:42.423Z,94.43
2022-12-01T01:40:09.680Z,94.67
2022-12-01T01:42:36.220Z,94.43
2022-12-01T01:45:03.557Z,94.30
2022-12-01T01:47:37.496Z,94.25
2022-12-01T01:50:09.583Z,94.29
2022-12-01T01:52:41.577Z,94.61
2022-12-01T01:55:08.911Z,94.24
2022-12-01T01:57:36.331Z,94.28
2022-12-01T02:00:10.248Z,94.67
2022-12-01T02:02:44.706Z,94.83
2022-12-01T02:05:20.250Z,94.08
2022-12-01T02:07:48.084Z,94.43
2022-12-01T02:10:22.204Z,94.76
2022-12-01T02:12:58.242Z,94.23
2022-12-01T02:15:38.917Z,94.35
2022-12-01T02:18:17.509Z,94.72
2022-12-01T02:21:05.346Z,94.42
2022-12-01T02:23:37.801Z,93.94
2022-12-01T02:26:10.209Z,94.53
2022-12-01T02:28:45.673Z,94.49
2022-12-01T02:31:53.324Z,94.38
2022-12-01T02:34:29.521Z,94.49
2022-12-01T02:37:08.437Z,93.92
2022-12-01T02:39:52.195Z,94.41
2022-12-01T02:42:56.456Z,93.84
2022-12-01T02:45:37.039Z,94.02
2022-12-01T02:48:10.068Z,93.69
2022-12-01T02:50:39.436Z,93.99
2022-12-01T02:53:08.412Z,94.30
2022-12-01T02:55:35.093Z,93.92
2022-12-01T02:58:01.773Z,94.38
2022-12-01T03:00:30.320Z,94.38
2022-12-01T03:03:11.913Z,94.53
2022-12-01T03:05:48.878Z,94.42
2022-12-01T03:08:32.996Z,94.24
2022-12-01T03:11:00.388Z,94.26
2022-12-01T03:13:54.476Z,93.96
2022-12-01T03:16:36.313Z,94.19
2022-12-01T03:19:33.644Z,94.69
2022-12-01T03:22:34.260Z,93.68
2022-12-01T03:25:03.655Z,94.16
2022-12-01T03:27:35.328Z,93.42
2022-12-01T03:30:03.617Z,93.79
2022-12-01T03:32:40.844Z,93.39
2022-12-01T03:35:35.955Z,93.40
2022-12-01T03:38:30.126Z,93.33
2022-12-01T03:41:05.589Z,93.46
2022-12-01T03:43:36.669Z,92.76
2022-12-01T03:46:10.428Z,92.87
2022-12-01T03:48:38.635Z,92.70
2022-12-01T03:51:14.085Z,93.28
2022-12-01T03:53:59.164Z,93.72
2022-12-01T03:56:31.967Z,93.57
2022-12-01T03:59:01.273Z,93.74
2022-12-01T04:01:32.737Z,93.30
2022-12-01T04:04:14.679Z,93.38
2022-12-01T04:06:46.124Z,93.52
2022-12-01T04:09:13.387Z,93.50
2022-12-01T04:11:58.314Z,93.89
2022-12-01T04:14:25.069Z,93.88
2022-12-01T04:16:51.691Z,94.05
2022-12-01T04:19:18.510Z,92.54
2022-12-01T04:21:45.065Z,92.55
2022-12-01T04:24:12.926Z,92.82
2022-12-01T04:26:39.820Z,93.09
2022-12-01T04:29:08.729Z,93.23
2022-12-01T04:31:35.905Z,93.14
2022-12-01T04:34:03.231Z,93.55
2022-12-01T04:36:32.186Z,93.69
2022-12-01T04:38:58.712Z,93.07
2022-12-01T04:41:25.359Z,93.00
2022-12-01T04:43:55.768Z,93.11
2022-12-01T04:46:22.789Z,93.43
2022-12-01T04:48:49.886Z,92.71
2022-12-01T04:51:17.026Z,92.67
2022-12-01T04:53:43.700Z,93.46
2022-12-01T04:56:10.721Z,93.71
2022-12-01T04:58:37.972Z,93.19
2022-12-01T05:01:10.220Z,92.79
2022-12-01T05:03:41.995Z,93.04
2022-12-01T05:06:11.960Z,92.57
2022-12-01T05:08:38.660Z,92.71
2022-12-01T05:11:07.881Z,92.76
2022-12-01T05:13:37.288Z,92.97
2022-12-01T05:16:06.231Z,92.73
2022-12-01T05:18:33.634Z,92.92
2022-12-01T05:21:00.586Z,92.99
2022-12-01T05:23:29.239Z,92.87
2022-12-01T05:25:56.509Z,92.65
2022-12-01T05:28:24.829Z,92.39
2022-12-01T05:30:51.574Z,92.50
2022-12-01T05:33:18.063Z,92.43
2022-12-01T05:35:45.817Z,92.50
2022-12-01T05:38:12.479Z,92.23
2022-12-01T05:40:39.105Z,92.46
2022-12-01T05:43:06.142Z,92.36
2022-12-01T05:45:33.771Z,92.16
2022-12-01T05:48:01.570Z,92.45
2022-12-01T05:50:29.924Z,92.67
2022-12-01T05:52:56.552Z,92.48
2022-12-01T05:55:23.187Z,92.53
2022-12-01T05:57:49.832Z,92.25
2022-12-01T06:00:17.007Z,92.71
2022-12-01T06:02:43.724Z,92.74
2022-12-01T06:05:10.363Z,92.15
2022-12-01T06:07:37.002Z,92.19
2022-12-01T06:10:04.205Z,92.65
2022-12-01T06:12:30.975Z,92.91
2022-12-01T06:14:57.544Z,92.30
2022-12-01T06:17:24.155Z,92.52
2022-12-01T06:19:51.017Z,92.29
2022-12-01T06:22:17.840Z,92.77
2022-12-01T06:24:44.389Z,92.51
2022-12-01T06:27:10.990Z,92.40
2022-12-01T06:29:41.913Z,92.16
2022-12-01T06:32:09.459Z,92.57
2022-12-01T06:34:35.961Z,93.02
2022-12-01T06:37:02.690Z,93.33
2022-12-01T06:39:29.349Z,93.20
2022-12-01T06:41:55.952Z,92.89
2022-12-01T06:44:22.465Z,92.59
2022-12-01T06:46:52.787Z,92.43
2022-12-01T06:49:20.201Z,92.25
2022-12-01T06:51:46.838Z,92.84
2022-12-01T06:54:14.369Z,92.18
2022-12-01T06:56:42.855Z,92.43
2022-12-01T06:59:10.097Z,91.99
2022-12-01T07:01:37.071Z,92.04
2022-12-01T07:04:03.665Z,92.23
2022-12-01T07:06:30.862Z,92.87
2022-12-01T07:08:57.430Z,92.81
2022-12-01T07:11:24.035Z,91.62
2022-12-01T07:13:55.702Z,91.65
2022-12-01T07:16:23.185Z,92.23
2022-12-01T07:18:50.816Z,92.54
2022-12-01T07:21:17.376Z,92.41
2022-12-01T07:23:43.961Z,91.97
2022-12-01T07:26:15.596Z,91.92
2022-12-01T07:28:43.250Z,92.05
2022-12-01T07:31:12.591Z,92.03
2022-12-01T07:33:39.712Z,91.96
2022-12-01T07:36:07.302Z,91.87
2022-12-01T07:38:35.463Z,92.01
2022-12-01T07:41:14.132Z,92.12
2022-12-01T07:43:41.381Z,91.85
2022-12-01T07:46:10.436Z,91.96
2022-12-01T07:48:39.055Z,92.31
2022-12-01T07:51:10.122Z,92.61
2022-12-01T07:53:36.799Z,92.00
2022-12-01T07:56:08.564Z,91.38
2022-12-01T07:58:36.246Z,91.11
2022-12-01T08:01:08.081Z,91.47
2022-12-01T08:03:35.526Z,91.56
2022-12-01T08:06:03.527Z,91.95
2022-12-01T08:08:33.986Z,92.28
2022-12-01T08:11:02.378Z,91.90
2022-12-01T08:13:29.536Z,91.38
2022-12-01T08:15:56.426Z,91.18
2022-12-01T08:18:23.471Z,91.70
2022-12-01T08:20:50.741Z,91.89
2022-12-01T08:23:17.278Z,92.30
2022-12-01T08:25:43.875Z,92.01
2022-12-01T08:28:10.490Z,91.67
2022-12-01T08:30:37.088Z,91.08
2022-12-01T08:33:03.855Z,91.06
2022-12-01T08:35:30.495Z,90.94
2022-12-01T08:37:56.945Z,90.96
2022-12-01T08:40:23.636Z,91.33
2022-12-01T08:42:52.596Z,91.86
2022-12-01T08:45:19.806Z,91.77
2022-12-01T08:47:47.518Z,91.24
2022-12-01T08:50:14.259Z,91.56
2022-12-01T08:52:41.000Z,91.65
2022-12-01T08:55:08.459Z,91.79
2022-12-01T08:57:35.439Z,91.04
2022-12-01T09:00:02.461Z,90.62
2022-12-01T09:02:29.208Z,90.12
2022-12-01T09:04:55.916Z,90.20
2022-12-01T09:07:26.382Z,90.66
2022-12-01T09:09:53.312Z,90.41
2022-12-01T09:12:19.993Z,89.52
2022-12-01T09:14:49.671Z,89.68
2022-12-01T09:17:17.506Z,90.30
2022-12-01T09:19:44.717Z,90.41
2022-12-01T09:22:12.020Z,90.67
2022-12-01T09:24:39.056Z,89.87
2022-12-01T09:27:06.167Z,89.87
2022-12-01T09:29:32.801Z,90.00
2022-12-01T09:32:00.286Z,89.35
2022-12-01T09:34:27.846Z,89.41
2022-12-01T09:36:56.685Z,89.19
2022-12-01T09:39:23.750Z,88.75
2022-12-01T09:41:57.572Z,89.18
2022-12-01T09:44:39.025Z,89.18
2022-12-01T09:47:12.955Z,88.62
2022-12-01T09:50:05.264Z,88.77
2022-12-01T09:52:38.407Z,89.21
2022-12-01T09:55:11.945Z,89.58
2022-12-01T09:57:40.325Z,89.97
2022-12-01T10:00:18.056Z,88.78
2022-12-01T10:02:58.748Z,89.45
2022-12-01T10:05:31.593Z,89.21
2022-12-01T10:08:02.190Z,89.47
2022-12-01T10:10:30.720Z,89.06
2022-12-01T10:12:57.725Z,88.64
2022-12-01T10:15:52.171Z,89.23
2022-12-01T10:18:47.466Z,88.92
2022-12-01T10:21:33.026Z,88.81
2022-12-01T10:24:08.659Z,88.58
2022-12-01T10:26:45.431Z,88.79
2022-12-01T10:29:19.766Z,88.07
2022-12-01T10:31:54.378Z,88.37
2022-12-01T10:34:24.940Z,88.76
2022-12-01T10:36:51.557Z,88.51
2022-12-01T10:39:29.480Z,88.02
2022-12-01T10:42:04.361Z,88.50
2022-12-01T10:44:31.045Z,87.60
2022-12-01T10:46:57.694Z,87.62
2022-12-01T10:49:37.525Z,87.42
2022-12-01T10:52:05.122Z,87.67
2022-12-01T10:54:41.285Z,87.60
2022-12-01T10:57:16.793Z,87.30
2022-12-01T11:00:04.295Z,86.87
2022-12-01T11:02:32.095Z,87.07
2022-12-01T11:05:02.716Z,87.49
2022-12-01T11:07:33.511Z,87.91
2022-12-01T11:10:22.209Z,87.33
2022-12-01T11:13:16.651Z,88.04
2022-12-01T11:16:29.740Z,88.19
2022-12-01T11:19:10.140Z,88.37
2022-12-01T11:21:54.438Z,87.49
2022-12-01T11:24:28.881Z,87.46
2022-12-01T11:26:58.405Z,88.25
2022-12-01T11:29:30.777Z,86.91
2022-12-01T11:31:58.301Z,86.52
2022-12-01T11:34:31.679Z,86.75
2022-12-01T11:37:02.467Z,86.82
2022-12-01T11:39:33.353Z,87.46
2022-12-01T11:42:04.453Z,87.16
2022-12-01T11:44:50.924Z,87.15
2022-12-01T11:47:26.329Z,87.32
2022-12-01T11:49:59.130Z,86.74
2022-12-01T11:52:27.329Z,86.63
2022-12-01T11:55:11.110Z,87.29
2022-12-01T11:57:40.939Z,87.67
2022-12-01T12:00:14.942Z,88.11
2022-12-01T12:02:48.985Z,87.46
2022-12-01T12:05:39.586Z,86.60
2022-12-01T12:08:28.226Z,87.02
2022-12-01T12:11:12.957Z,87.57
2022-12-01T12:13:53.552Z,88.09
2022-12-01T12:16:25.314Z,88.01
2022-12-01T12:19:11.938Z,88.40
2022-12-01T12:22:05.645Z,88.66
2022-12-01T12:24:50.996Z,87.98
2022-12-01T12:27:39.330Z,87.34
2022-12-01T12:30:13.174Z,88.16
2022-12-01T12:32:46.102Z,88.63
2022-12-01T12:35:34.188Z,88.28
2022-12-01T12:38:05.052Z,88.04
2022-12-01T12:40:47.171Z,88.30
2022-12-01T12:43:43.373Z,87.68
2022-12-01T12:46:12.300Z,87.70
2022-12-01T12:49:19.631Z,86.80
2022-12-01T12:52:07.809Z,87.55
2022-12-01T12:54:59.342Z,87.89
2022-12-01T12:57:32.937Z,88.01
2022-12-01T13:00:02.536Z,87.44
2022-12-01T13:02:39.202Z,88.04
2022-12-01T13:05:24.743Z,88.41
2022-12-01T13:08:12.922Z,88.63
2022-12-01T13:10:54.555Z,88.61
2022-12-01T13:13:55.455Z,88.67
2022-12-01T13:16:32.835Z,87.94
2022-12-01T13:19:05.909Z,88.30
2022-12-01T13:21:39.520Z,88.73
2022-12-01T13:24:07.701Z,88.60
2022-12-01T13:26:37.547Z,87.71
2022-12-01T13:29:07.506Z,87.70
2022-12-01T13:31:54.974Z,87.74
2022-12-01T13:34:26.658Z,88.28
2022-12-01T13:36:55.400Z,88.35
2022-12-01T13:39:35.652Z,87.95
2022-12-01T13:42:06.828Z,88.48
2022-12-01T13:44:43.054Z,88.40
2022-12-01T13:47:09.688Z,87.90
2022-12-01T13:49:44.171Z,87.78
2022-12-01T13:52:22.984Z,87.96
2022-12-01T13:55:07.849Z,87.83
2022-12-01T13:57:37.666Z,88.66
2022-12-01T14:00:23.805Z,88.58
2022-12-01T14:03:12.208Z,88.52
2022-12-01T14:05:53.731Z,87.84
2022-12-01T14:08:33.396Z,88.71
2022-12-01T14:11:01.637Z,88.93
2022-12-01T14:13:28.989Z,89.30
2022-12-01T14:16:03.681Z,89.21
2022-12-01T14:18:42.751Z,89.18
2022-12-01T14:21:11.362Z,89.11
2022-12-01T14:24:00.795Z,88.78
2022-12-01T14:26:30.244Z,88.72
2022-12-01T14:28:59.708Z,88.92
2022-12-01T14:31:32.289Z,88.64
2022-12-01T14:34:00.936Z,88.44
2022-12-01T14:36:41.201Z,88.73
2022-12-01T14:39:13.450Z,88.84
2022-12-01T14:41:44.980Z,88.95
2022-12-01T14:44:29.231Z,88.58
2022-12-01T14:47:23.533Z,89.08
2022-12-01T14:50:02.269Z,88.77
2022-12-01T14:52:28.879Z,89.43
2022-12-01T14:54:59.065Z,89.38
2022-12-01T14:57:34.155Z,89.24
2022-12-01T15:00:16.530Z,89.53
2022-12-01T15:03:03.118Z,89.55
2022-12-01T15:05:32.495Z,89.83
2022-12-01T15:08:40.281Z,90.06
2022-12-01T15:11:06.447Z,90.32
2022-12-01T15:13:38.821Z,90.10
2022-12-01T15:16:15.445Z,90.42
2022-12-01T15:18:42.481Z,90.45
2022-12-01T15:21:18.068Z,90.76
2022-12-01T15:24:00.678Z,90.55
2022-12-01T15:26:32.472Z,91.06
2022-12-01T15:29:12.216Z,90.21
2022-12-01T15:31:39.264Z,91.00
2022-12-01T15:34:08.890Z,90.92
2022-12-01T15:36:37.148Z,91.25
2022-12-01T15:39:07.174Z,91.58
2022-12-01T15:41:36.354Z,91.76
2022-12-01T15:44:05.347Z,92.01
2022-12-01T15:46:36.988Z,92.29
2022-12-01T15:49:19.110Z,92.37
2022-12-01T15:51:48.270Z,92.26
2022-12-01T15:54:20.647Z,91.84
2022-12-01T15:56:52.034Z,92.40
2022-12-01T15:59:32.996Z,92.42
2022-12-01T16:02:04.494Z,92.51
2022-12-01T16:04:32.308Z,92.55
2022-12-01T16:07:06.569Z,92.81
2022-12-01T16:09:55.231Z,92.42
2022-12-01T16:12:27.906Z,92.65
2022-12-01T16:15:00.435Z,92.51
2022-12-01T16:17:29.505Z,92.75
2022-12-01T16:20:20.262Z,92.88
2022-12-01T16:22:50.241Z,93.17
2022-12-01T16:25:27.995Z,93.77
2022-12-01T16:27:56.877Z,93.72
2022-12-01T16:30:26.206Z,93.49
2022-12-01T16:33:02.349Z,93.56
2022-12-01T16:35:31.405Z,93.75
2022-12-01T16:37:58.547Z,93.74
2022-12-01T16:40:25.725Z,93.90
2022-12-01T16:42:52.535Z,93.91
2022-12-01T16:45:19.671Z,94.02
2022-12-01T16:47:48.387Z,94.10
2022-12-01T16:50:16.893Z,94.21
2022-12-01T16:52:45.263Z,94.22
2022-12-01T16:55:36.578Z,94.30
2022-12-01T16:58:03.456Z,93.66
2022-12-01T17:00:30.261Z,93.76
2022-12-01T17:02:57.631Z,93.95
2022-12-01T17:05:24.456Z,94.07
2022-12-01T17:07:51.489Z,93.50
2022-12-01T17:10:18.186Z,93.96
2022-12-01T17:12:44.685Z,93.85
2022-12-01T17:15:11.439Z,93.63
2022-12-01T17:17:38.721Z,94.11
2022-12-01T17:20:06.583Z,93.05
2022-12-01T17:22:34.610Z,93.05
2022-12-01T17:25:02.295Z,93.32
2022-12-01T17:27:31.380Z,93.54
2022-12-01T17:29:59.374Z,93.66
2022-12-01T17:32:26.892Z,94.02
2022-12-01T17:34:53.714Z,94.49
2022-12-01T17:37:21.529Z,94.44
2022-12-01T17:39:49.357Z,95.04
2022-12-01T17:42:16.458Z,95.67
2022-12-01T17:44:43.076Z,95.34
2022-12-01T17:47:09.725Z,95.46
2022-12-01T17:49:36.573Z,95.51
2022-12-01T17:52:06.867Z,95.47
2022-12-01T17:54:33.741Z,95.70
2022-12-01T17:57:00.228Z,95.62
2022-12-01T17:59:26.757Z,95.85
2022-12-01T18:01:53.405Z,95.87
2022-12-01T18:04:20.081Z,96.06
2022-12-01T18:06:52.271Z,96.04
2022-12-01T18:09:20.541Z,96.15
2022-12-01T18:11:47.134Z,96.58
2022-12-01T18:14:17.561Z,96.22
2022-12-01T18:16:45.264Z,96.55
2022-12-01T18:19:12.224Z,96.73
2022-12-01T18:21:39.289Z,96.92
2022-12-01T18:24:08.777Z,96.68
2022-12-01T18:26:36.948Z,96.70
2022-12-01T18:29:07.669Z,96.81
2022-12-01T18:31:35.218Z,96.77
2022-12-01T18:34:03.314Z,96.63
2022-12-01T18:36:32.095Z,96.47
2022-12-01T18:39:00.776Z,96.56
2022-12-01T18:41:28.004Z,96.76
2022-12-01T18:43:54.604Z,96.89
2022-12-01T18:46:21.999Z,96.87
2022-12-01T18:48:51.061Z,96.90
2022-12-01T18:51:18.585Z,96.74
2022-12-01T18:53:45.484Z,96.92
2022-12-01T18:56:15.178Z,96.90
2022-12-01T18:58:42.790Z,96.95
2022-12-01T19:01:24.125Z,96.84
2022-12-01T19:03:51.231Z,96.83
2022-12-01T19:06:18.563Z,96.83
2022-12-01T19:08:45.748Z,97.11
2022-12-01T19:11:12.576Z,97.06
2022-12-01T19:13:39.286Z,97.09
2022-12-01T19:16:12.838Z,97.14
2022-12-01T19:18:39.749Z,97.30
2022-12-01T19:21:09.512Z,97.13
2022-12-01T19:23:36.642Z,97.11
2022-12-01T19:26:08.519Z,97.06
2022-12-01T19:28:36.273Z,97.13
2022-12-01T19:31:06.763Z,97.00
2022-12-01T19:33:33.651Z,96.96
2022-12-01T19:36:08.602Z,96.96
2022-12-01T19:38:35.419Z,96.85
2022-12-01T19:41:03.408Z,96.84
2022-12-01T19:43:29.985Z,96.91
2022-12-01T19:45:56.638Z,96.92
2022-12-01T19:48:23.239Z,96.84
2022-12-01T19:50:49.771Z,96.89
2022-12-01T19:53:16.334Z,97.04
2022-12-01T19:55:42.919Z,96.99
2022-12-01T19:58:09.482Z,97.02
2022-12-01T20:00:36.229Z,97.03
2022-12-01T20:03:03.824Z,97.02
2022-12-01T20:05:32.687Z,97.03
2022-12-01T20:07:59.299Z,97.12
2022-12-01T20:10:25.969Z,97.24
2022-12-01T20:12:52.779Z,97.08
2022-12-01T20:15:19.496Z,97.05
2022-12-01T20:17:46.111Z,97.13
2022-12-01T20:20:13.113Z,97.13
2022-12-01T20:22:39.818Z,97.16
2022-12-01T20:25:06.932Z,97.16
2022-12-01T20:27:33.514Z,97.06
2022-12-01T20:30:00.393Z,97.11
2022-12-01T20:32:27.334Z,97.08
2022-12-01T20:34:54.110Z,97.06
2022-12-01T20:37:20.651Z,97.18
2022-12-01T20:39:47.380Z,97.19
2022-12-01T20:42:13.961Z,97.11
2022-12-01T20:44:40.928Z,97.17
2022-12-01T20:47:07.517Z,97.10
2022-12-01T20:49:34.485Z,97.21
2022-12-01T20:52:01.123Z,97.30
2022-12-01T20:54:29.498Z,97.35
2022-12-01T20:56:57.585Z,97.29
2022-12-01T20:59:24.652Z,97.36
2022-12-01T21:01:51.221Z,97.21
2022-12-01T21:04:18.025Z,97.17
2022-12-01T21:06:44.654Z,97.20
2022-12-01T21:09:12.959Z,97.19
2022-12-01T21:12:04.920Z,97.19
2022-12-01T21:14:42.650Z,97.16
2022-12-01T21:17:29.734Z,97.23
2022-12-01T21:20:11.537Z,97.29
2022-12-01T21:22:38.365Z,97.28
2022-12-01T21:25:18.641Z,97.20
2022-12-01T21:27:49.217Z,97.05
2022-12-01T21:30:21.847Z,97.24
2022-12-01T21:32:49.639Z,97.06
2022-12-01T21:35:27.550Z,97.29
2022-12-01T21:38:01.591Z,97.12
2022-12-01T21:40:28.698Z,97.08
2022-12-01T21:43:01.311Z,97.02
2022-12-01T21:45:29.869Z,97.12
2022-12-01T21:48:19.653Z,97.06
2022-12-01T21:50:50.833Z,97.18
2022-12-01T21:53:21.200Z,97.24
2022-12-01T21:55:49.221Z,97.23
2022-12-01T21:58:21.442Z,97.14
2022-12-01T22:00:48.085Z,97.17
2022-12-01T22:03:32.797Z,97.01
2022-12-01T22:06:29.778Z,97.24
2022-12-01T22:09:02.274Z,97.10
2022-12-01T22:11:30.575Z,97.25
2022-12-01T22:14:12.752Z,97.21
2022-12-01T22:17:06.520Z,97.08
2022-12-01T22:19:34.210Z,97.18
2022-12-01T22:22:22.751Z,97.01
2022-12-01T22:24:59.488Z,96.96
2022-12-01T22:27:31.122Z,97.04
2022-12-01T22:30:23.714Z,97.06
2022-12-01T22:32:59.377Z,96.93
2022-12-01T22:35:34.680Z,96.90
2022-12-01T22:38:08.533Z,97.10
2022-12-01T22:40:56.610Z,97.09
2022-12-01T22:43:54.851Z,96.90
2022-12-01T22:46:37.436Z,96.83
2022-12-01T22:49:10.338Z,96.96
2022-12-01T22:51:42.256Z,96.92
2022-12-01T22:54:12.125Z,96.97
2022-12-01T22:56:41.813Z,97.02
2022-12-01T22:59:21.610Z,96.88
2022-12-01T23:01:55.236Z,96.76
2022-12-01T23:04:41.369Z,97.02
2022-12-01T23:07:09.575Z,96.89
2022-12-01T23:09:40.764Z,96.61
2022-12-01T23:12:13.336Z,96.59
2022-12-01T23:14:44.603Z,96.60
2022-12-01T23:17:32.701Z,96.55
2022-12-01T23:20:25.894Z,96.55
2022-12-01T23:22:54.497Z,96.65
2022-12-01T23:25:21.272Z,96.73
2022-12-01T23:27:50.459Z,96.78
2022-12-01T23:30:18.831Z,96.76
2022-12-01T23:32:47.863Z,96.66
2022-12-01T23:35:16.998Z,96.69
2022-12-01T23:37:46.250Z,96.71
2022-12-01T23:40:30.471Z,96.65
2022-12-01T23:43:25.367Z,96.62
2022-12-01T23:46:10.976Z,96.88
2022-12-01T23:48:42.178Z,96.70
2022-12-01T23:51:16.890Z,96.57
2022-12-01T23:53:43.914Z,96.65
2022-12-01T23:56:15.885Z,96.61
2022-12-01T23:58:44.423Z,96.76
